»·PEaware :: JBU475 KTUS-KPHX

JBU475 :: KTUS-KPHX

FLIGHT INFORMATION

Flight Status: Arrived
Operator:
JetBlue Airways
More flights by this operator :: More flights under this callsign
Pilot: Aker J. (16898)
Aircraft: EMBRAER EMB-190/195
(E190)
More flights by this aircraft type
Origin: KTUS Tucson Intl
United States
Destination: KPHX Phoenix Sky Harbor Intl
United States
More flights between these airports :: More routes between these airports
Route: +WLDKT3 HOTTT PINNG1
File this flight plan on PilotEdge
Remarks:
Altitude:
(Current/Filed)
24,000ft
Speed:
(Current/Filed)
450kts
Departed: 21-Apr-18 11:48 AM
Arrived: 21-Apr-18 12:18 PM
Distance/Time
Traveled:
96nm/0:30
Distance/Time
To Go:
Arrived

Flight Plot

Page will automatically refresh every two minutes.

Flight plan parsing failed; only flown route is shown


Map Options




Map Legend


Flown Route
Filed Route
Departure Airport
Arrival Airport
Navaid (VOR, NDB)
Fix

Horizontal Profiles

Position Reports

Time Latitude Longitude Heading Altitude Ground
Speed
21-Apr-18 11:18 32.114585 -110.932195 226 2618ft 0kts
21-Apr-18 11:19 32.114585 -110.932195 226 2618ft 0kts
21-Apr-18 11:20 32.114585 -110.932195 226 2618ft 0kts
21-Apr-18 11:21 32.114585 -110.932195 226 2618ft 0kts
21-Apr-18 11:22 32.114585 -110.932195 226 2618ft 0kts
21-Apr-18 11:23 32.114585 -110.932195 226 2618ft 0kts
21-Apr-18 11:24 32.114585 -110.932195 226 2618ft 0kts
21-Apr-18 11:25 32.114585 -110.932195 226 2618ft 0kts
21-Apr-18 11:26 32.114585 -110.932195 226 2618ft 0kts
21-Apr-18 11:27 32.114585 -110.932195 226 2618ft 0kts
21-Apr-18 11:28 32.114585 -110.932195 226 2618ft 0kts
21-Apr-18 11:29 32.114585 -110.932195 226 2618ft 0kts
21-Apr-18 11:30 32.114585 -110.932195 226 2618ft 0kts
21-Apr-18 11:31 32.114585 -110.932195 226 2618ft 0kts
21-Apr-18 11:32 32.114585 -110.932195 226 2618ft 0kts
21-Apr-18 11:33 32.114585 -110.932195 226 2618ft 0kts
21-Apr-18 11:34 32.114585 -110.932195 226 2618ft 0kts
21-Apr-18 11:35 32.114585 -110.932195 226 2618ft 0kts
21-Apr-18 11:36 32.114585 -110.932195 226 2618ft 0kts
21-Apr-18 11:37 32.114585 -110.932195 226 2618ft 0kts
21-Apr-18 11:38 32.114585 -110.932195 226 2618ft 0kts
21-Apr-18 11:39 32.114585 -110.932195 226 2618ft 0kts
21-Apr-18 11:40 32.113520 -110.933355 191 2618ft 17kts
21-Apr-18 11:41 32.108746 -110.928230 135 2634ft 27kts
21-Apr-18 11:42 32.103402 -110.922224 180 2653ft 8kts
21-Apr-18 11:43 32.103348 -110.922231 188 2653ft 0kts
21-Apr-18 11:44 32.103348 -110.922231 188 2653ft 0kts
21-Apr-18 11:45 32.103042 -110.922314 195 2653ft 11kts
21-Apr-18 11:46 32.102727 -110.923599 310 2650ft 1kts
21-Apr-18 11:47 32.122702 -110.946526 317 3257ft 191kts
21-Apr-18 11:48 32.172026 -110.999048 316 5126ft 257kts
21-Apr-18 11:49 32.223919 -111.058485 329 8651ft 267kts
21-Apr-18 11:50 32.296652 -111.071363 7 11734ft 277kts
21-Apr-18 11:51 32.372691 -111.052520 9 14628ft 283kts
21-Apr-18 11:52 32.450958 -111.039916 4 17234ft 288kts
21-Apr-18 11:53 32.531281 -111.031233 0 19523ft 295kts
21-Apr-18 11:54 32.611523 -111.008611 344 21462ft 297kts
21-Apr-18 11:55 32.659359 -111.081970 295 23374ft 300kts
21-Apr-18 11:56 32.710448 -111.163279 317 24084ft 336kts
21-Apr-18 11:57 32.763154 -111.223108 308 22773ft 310kts
21-Apr-18 11:58 32.809947 -111.305593 305 21154ft 303kts
21-Apr-18 11:59 32.857231 -111.390497 306 19518ft 314kts
21-Apr-18 12:00 32.906109 -111.477660 307 17505ft 328kts
21-Apr-18 12:01 32.962382 -111.563655 312 14817ft 337kts
21-Apr-18 12:02 33.020863 -111.650413 310 13367ft 340kts
21-Apr-18 12:03 33.074022 -111.732000 311 13440ft 294kts
21-Apr-18 12:04 33.123837 -111.806005 311 12575ft 297kts
21-Apr-18 12:05 33.158047 -111.856971 311 11640ft 302kts
21-Apr-18 12:06 33.195068 -111.879608 8 10633ft 288kts
21-Apr-18 12:07 33.263721 -111.833678 29 8803ft 283kts
21-Apr-18 12:08 33.330120 -111.784679 29 6912ft 281kts
21-Apr-18 12:09 33.395813 -111.737269 29 5063ft 267kts
21-Apr-18 12:11 33.480042 -111.686630 336 5055ft 187kts
21-Apr-18 12:12 33.482261 -111.747901 238 4794ft 228kts
21-Apr-18 12:13 33.435559 -111.790355 238 4253ft 202kts
21-Apr-18 12:14 33.428914 -111.858561 272 2967ft 201kts
21-Apr-18 12:15 33.428606 -111.917630 272 2024ft 159kts
21-Apr-18 12:16 33.428113 -111.967246 269 1599ft 155kts
21-Apr-18 12:17 33.429221 -112.009763 276 1115ft 29kts
21-Apr-18 12:18 33.433890 -112.014297 94 1124ft 0kts
21-Apr-18 12:19 33.433890 -112.014297 94 1124ft 0kts
21-Apr-18 12:20 33.433890 -112.014297 94 1124ft 0kts
21-Apr-18 12:21 33.433891 -112.014311 94 1121ft 0kts
21-Apr-18 12:22 33.433891 -112.014311 94 1121ft 0kts
21-Apr-18 12:23 33.433898 -112.014409 94 1127ft 0kts
21-Apr-18 12:24 33.433898 -112.014409 94 1127ft 0kts

Navigation Log

Ident Type
Flight plan parsing failed, navigation log unavailable